createdAt,value
2022-12-25T00:01:01.011Z,6
2022-12-25T00:02:00.979Z,6.1
2022-12-25T00:03:01.126Z,5.9
2022-12-25T00:05:00.906Z,6.1
2022-12-25T00:06:00.941Z,5.9
2022-12-25T00:07:00.975Z,5.8
2022-12-25T00:10:00.937Z,6
2022-12-25T00:12:00.922Z,5.9
2022-12-25T00:14:00.911Z,6
2022-12-25T00:15:00.992Z,5.9
2022-12-25T00:17:00.982Z,5.9
2022-12-25T00:20:00.917Z,6
2022-12-25T00:21:00.967Z,5.8
2022-12-25T00:23:00.918Z,5.9
2022-12-25T00:24:00.976Z,5.8
2022-12-25T00:27:00.985Z,5.9
2022-12-25T00:28:01.017Z,5.7
2022-12-25T00:32:01.032Z,5.7
2022-12-25T00:33:00.982Z,5.6
2022-12-25T00:35:00.936Z,5.7
2022-12-25T00:37:00.988Z,5.6
2022-12-25T00:39:00.969Z,5.5
2022-12-25T00:43:00.953Z,5.5
2022-12-25T00:47:00.946Z,5.5
2022-12-25T00:48:00.979Z,5.6
2022-12-25T00:50:01.004Z,5.5
2022-12-25T00:52:00.953Z,5.6
2022-12-25T00:53:00.957Z,5.5
2022-12-25T00:56:00.926Z,5.5
2022-12-25T00:57:00.983Z,5.3
2022-12-25T00:59:00.904Z,5.4
2022-12-25T01:00:01.094Z,5.5
2022-12-25T01:02:01.124Z,5.3
2022-12-25T01:09:00.986Z,5.2
2022-12-25T01:10:00.989Z,5.3
2022-12-25T01:11:01.010Z,5.2
2022-12-25T01:13:01.020Z,5.1
2022-12-25T01:16:01.081Z,5.1
2022-12-25T01:18:05.712Z,5
2022-12-25T01:19:00.933Z,5.1
2022-12-25T01:20:00.994Z,4.9
2022-12-25T01:22:00.933Z,4.9
2022-12-25T01:24:00.966Z,5
2022-12-25T01:27:00.947Z,5
2022-12-25T01:29:00.902Z,5.1
2022-12-25T01:30:01.087Z,4.9
2022-12-25T01:32:00.915Z,4.9
2022-12-25T01:34:00.956Z,4.8
2022-12-25T01:35:00.961Z,4.9
2022-12-25T01:37:00.972Z,4.9
2022-12-25T01:43:00.942Z,4.7
2022-12-25T01:48:00.925Z,4.6
2022-12-25T01:49:00.931Z,4.7
2022-12-25T01:50:00.978Z,4.6
2022-12-25T01:53:00.965Z,4.7
2022-12-25T01:55:00.995Z,4.6
2022-12-25T02:02:01.050Z,4.5
2022-12-25T02:06:00.990Z,4.6
2022-12-25T02:07:01.018Z,4.5
2022-12-25T02:11:00.968Z,4.4
2022-12-25T02:13:00.975Z,4.4
2022-12-25T02:14:00.944Z,4.3
2022-12-25T02:15:05.173Z,4.4
2022-12-25T02:17:01.051Z,4.3
2022-12-25T02:22:00.938Z,4.1
2022-12-25T02:23:00.922Z,4.2
2022-12-25T02:27:01.016Z,4.1
2022-12-25T02:28:01.018Z,4.2
2022-12-25T02:30:01.076Z,4.2
2022-12-25T02:32:01.024Z,4
2022-12-25T02:34:01.006Z,4.1
2022-12-25T02:38:00.922Z,4
2022-12-25T02:41:00.905Z,4.1
2022-12-25T02:43:00.970Z,4.3
2022-12-25T02:46:00.956Z,4.2
2022-12-25T02:47:00.978Z,4.1
2022-12-25T02:50:00.926Z,3.9
2022-12-25T02:51:00.941Z,4
2022-12-25T02:53:00.961Z,4
2022-12-25T02:54:00.975Z,3.9
2022-12-25T02:56:00.922Z,4.2
2022-12-25T02:57:01.020Z,4
2022-12-25T03:00:01.053Z,4.3
2022-12-25T03:03:00.945Z,4
2022-12-25T03:08:00.917Z,4.1
2022-12-25T03:09:00.924Z,4
2022-12-25T03:16:00.904Z,4.1
2022-12-25T03:18:00.908Z,3.8
2022-12-25T03:19:00.926Z,4
2022-12-25T03:21:00.924Z,4.2
2022-12-25T03:22:00.926Z,4.1
2022-12-25T03:24:00.920Z,3.9
2022-12-25T03:25:00.910Z,4
2022-12-25T03:27:00.938Z,4.1
2022-12-25T03:28:00.961Z,4
2022-12-25T03:31:01.108Z,4
2022-12-25T03:37:00.997Z,4.2
2022-12-25T03:40:00.910Z,4.1
2022-12-25T03:41:00.966Z,4.2
2022-12-25T03:42:01.017Z,4.3
2022-12-25T03:46:00.969Z,4.3
2022-12-25T03:47:00.998Z,4.5
2022-12-25T03:50:00.931Z,4.6
2022-12-25T03:51:00.951Z,4.5
2022-12-25T03:54:00.923Z,4.5
2022-12-25T03:55:00.910Z,4.7
2022-12-25T03:57:00.940Z,4.6
2022-12-25T03:59:00.944Z,4.6
2022-12-25T04:00:01.007Z,4.7
2022-12-25T04:02:01.037Z,4.7
2022-12-25T04:04:00.920Z,4.6
2022-12-25T04:07:00.922Z,4.9
2022-12-25T04:09:00.929Z,4.8
2022-12-25T04:10:00.967Z,4.7
2022-12-25T04:12:02.935Z,4.9
2022-12-25T04:13:00.940Z,5
2022-12-25T04:18:00.929Z,5
2022-12-25T04:20:00.962Z,5.1
2022-12-25T04:21:00.954Z,4.9
2022-12-25T04:23:01.010Z,5.1
2022-12-25T04:26:00.988Z,5
2022-12-25T04:28:00.933Z,5.1
2022-12-25T04:29:00.960Z,5.2
2022-12-25T04:30:01.143Z,5.1
2022-12-25T04:32:00.915Z,5.1
2022-12-25T04:34:01.040Z,5.2
2022-12-25T04:39:01.020Z,5.3
2022-12-25T04:41:00.912Z,5.2
2022-12-25T04:43:00.898Z,5.3
2022-12-25T04:44:00.951Z,5.2
2022-12-25T04:46:01.044Z,5.3
2022-12-25T04:50:00.942Z,5.2
2022-12-25T04:52:00.906Z,5.2
2022-12-25T04:53:00.968Z,5.3
2022-12-25T04:56:00.924Z,5.3
2022-12-25T04:57:00.960Z,5.4
2022-12-25T04:59:00.983Z,5.5
2022-12-25T05:00:01.094Z,5.4
2022-12-25T05:02:01.022Z,5.4
2022-12-25T05:04:00.959Z,5.5
2022-12-25T05:09:00.992Z,5.5
2022-12-25T05:11:00.964Z,5.4
2022-12-25T05:14:00.961Z,5.6
2022-12-25T05:16:00.988Z,5.4
2022-12-25T05:17:00.968Z,5.5
2022-12-25T05:19:00.980Z,5.6
2022-12-25T05:20:00.951Z,5.4
2022-12-25T05:22:00.921Z,5.6
2022-12-25T05:26:00.939Z,5.5
2022-12-25T05:28:00.946Z,5.6
2022-12-25T05:31:00.951Z,5.5
2022-12-25T05:33:00.920Z,5.6
2022-12-25T05:35:00.916Z,5.5
2022-12-25T05:42:00.936Z,5.5
2022-12-25T05:43:00.910Z,5.7
2022-12-25T05:44:00.914Z,5.5
2022-12-25T05:45:00.942Z,5.6
2022-12-25T05:47:01.099Z,5.5
2022-12-25T05:49:01.139Z,5.6
2022-12-25T05:53:06.057Z,5.5
2022-12-25T05:56:00.905Z,5.6
2022-12-25T05:57:01.009Z,5.5
2022-12-25T05:59:00.968Z,5.5
2022-12-25T06:01:00.937Z,5.6
2022-12-25T06:04:01.046Z,5.5
2022-12-25T06:05:00.911Z,5.6
2022-12-25T06:06:00.915Z,5.5
2022-12-25T06:08:00.974Z,5.4
2022-12-25T06:13:00.966Z,5.5
2022-12-25T06:15:00.976Z,5.4
2022-12-25T06:19:00.935Z,5.3
2022-12-25T06:25:00.968Z,5.2
2022-12-25T06:27:00.982Z,5.1
2022-12-25T06:29:00.964Z,5.1
2022-12-25T06:30:01.148Z,5
2022-12-25T06:38:00.903Z,4.7
2022-12-25T06:40:00.966Z,4.8
2022-12-25T06:43:00.967Z,4.8
2022-12-25T06:44:00.998Z,4.9
2022-12-25T06:45:01.029Z,4.7
2022-12-25T06:47:00.988Z,4.7
2022-12-25T06:49:00.990Z,4.7
2022-12-25T06:51:00.971Z,4.7
2022-12-25T07:03:00.992Z,4.6
2022-12-25T07:06:01.022Z,4.7
2022-12-25T07:09:00.908Z,4.6
2022-12-25T07:10:00.951Z,4.7
2022-12-25T07:12:00.916Z,4.6
2022-12-25T07:14:00.909Z,4.7
2022-12-25T07:16:01.014Z,4.6
2022-12-25T07:18:00.948Z,4.7
2022-12-25T07:27:00.954Z,4.9
2022-12-25T07:31:01.040Z,5
2022-12-25T07:35:00.944Z,5.1
2022-12-25T07:38:00.958Z,5.2
2022-12-25T07:40:00.939Z,5.5
2022-12-25T07:42:00.930Z,5.6
2022-12-25T07:46:01.072Z,5.5
2022-12-25T07:47:00.933Z,5.7
2022-12-25T07:52:00.929Z,5.8
2022-12-25T07:53:00.972Z,5.9
2022-12-25T07:55:00.967Z,5.9
2022-12-25T07:59:00.991Z,5.9
2022-12-25T08:00:01.044Z,6
2022-12-25T08:02:01.171Z,6
2022-12-25T08:03:01.064Z,6.2
2022-12-25T08:08:00.959Z,6.1
2022-12-25T08:09:00.986Z,6.3
2022-12-25T08:11:00.960Z,6.4
2022-12-25T08:15:01.079Z,6.5
2022-12-25T08:17:01.003Z,6.4
2022-12-25T08:19:00.979Z,6.6
2022-12-25T08:21:00.927Z,6.6
2022-12-25T08:23:01.032Z,6.6
2022-12-25T08:25:00.934Z,6.7
2022-12-25T08:26:04.847Z,6.6
2022-12-25T08:27:00.971Z,6.7
2022-12-25T08:30:01.121Z,6.7
2022-12-25T08:32:00.950Z,6.7
2022-12-25T08:35:00.905Z,6.8
2022-12-25T08:36:00.954Z,6.7
2022-12-25T08:38:00.955Z,6.8
2022-12-25T08:41:00.939Z,6.8
2022-12-25T08:43:01.124Z,6.8
2022-12-25T08:46:01.073Z,6.7
2022-12-25T08:48:00.950Z,6.8
2022-12-25T08:49:00.919Z,6.7
2022-12-25T08:52:00.917Z,7
2022-12-25T08:57:02.755Z,7.1
2022-12-25T09:00:00.976Z,7.2
2022-12-25T09:01:01.067Z,7.1
2022-12-25T09:03:01.083Z,7.3
2022-12-25T09:06:00.926Z,7.3
2022-12-25T09:07:00.938Z,7.2
2022-12-25T09:08:00.925Z,7.3
2022-12-25T09:10:00.913Z,7.4
2022-12-25T09:11:00.980Z,7.5
2022-12-25T09:16:01.047Z,7.5
2022-12-25T09:17:00.986Z,7.6
2022-12-25T09:20:00.898Z,7.7
2022-12-25T09:22:00.945Z,7.6
2022-12-25T09:23:00.983Z,7.7
2022-12-25T09:26:00.929Z,7.8
2022-12-25T09:27:00.963Z,7.9
2022-12-25T09:29:00.896Z,7.9
2022-12-25T09:32:00.906Z,8
2022-12-25T09:35:00.896Z,8.1
2022-12-25T09:36:00.970Z,8.2
2022-12-25T09:39:00.939Z,8.3
2022-12-25T09:41:00.939Z,8.3
2022-12-25T09:43:00.989Z,8.4
2022-12-25T09:45:00.978Z,8.5
2022-12-25T09:48:00.947Z,8.6
2022-12-25T09:50:00.964Z,8.7
2022-12-25T09:52:00.936Z,8.8
2022-12-25T09:53:00.958Z,8.7
2022-12-25T09:55:00.909Z,8.9
2022-12-25T09:59:00.955Z,9.1
2022-12-25T10:01:00.950Z,9.2
2022-12-25T10:02:01.086Z,9.1
2022-12-25T10:05:00.926Z,9.4
2022-12-25T10:06:00.920Z,9.2
2022-12-25T10:07:00.975Z,9.4
2022-12-25T10:09:00.899Z,9.5
2022-12-25T10:10:01.103Z,9.6
2022-12-25T10:13:00.940Z,9.7
2022-12-25T10:15:01.034Z,9.8
2022-12-25T10:18:00.894Z,9.9
2022-12-25T10:19:00.925Z,10.1
2022-12-25T10:20:00.942Z,10
2022-12-25T10:21:00.930Z,10.1
2022-12-25T10:24:00.986Z,10.3
2022-12-25T10:26:00.949Z,10.4
2022-12-25T10:27:00.967Z,10.6
2022-12-25T10:29:00.986Z,10.5
2022-12-25T10:31:01.037Z,10.6
2022-12-25T10:33:01.003Z,10.7
2022-12-25T10:35:00.950Z,10.9
2022-12-25T10:36:00.962Z,10.8
2022-12-25T10:37:01.016Z,11
2022-12-25T10:41:00.944Z,11.1
2022-12-25T10:42:00.992Z,11
2022-12-25T10:44:00.992Z,11
2022-12-25T10:46:01.056Z,10.9
2022-12-25T10:48:06.763Z,10.8
2022-12-25T10:51:00.910Z,10.6
2022-12-25T10:52:00.954Z,10.8
2022-12-25T10:53:00.956Z,10.6
2022-12-25T10:54:00.940Z,10.7
2022-12-25T10:55:00.974Z,10.5
2022-12-25T10:58:00.910Z,10.6
2022-12-25T10:59:01.047Z,10.5
2022-12-25T11:03:01.223Z,10.6
2022-12-25T11:08:00.912Z,10.6
2022-12-25T11:09:01.043Z,10.7
2022-12-25T11:11:00.925Z,10.8
2022-12-25T11:12:00.964Z,10.7
2022-12-25T11:14:01.000Z,10.8
2022-12-25T11:15:00.970Z,10.7
2022-12-25T11:16:01.056Z,10.8
2022-12-25T11:18:00.936Z,11
2022-12-25T11:20:00.930Z,10.8
2022-12-25T11:21:01.031Z,10.9
2022-12-25T11:23:00.997Z,10.8
2022-12-25T11:24:01.039Z,11
2022-12-25T11:26:00.927Z,10.8
2022-12-25T11:28:00.937Z,10.7
2022-12-25T11:29:00.943Z,10.9
2022-12-25T11:31:01.048Z,10.8
2022-12-25T11:33:00.988Z,10.8
2022-12-25T11:36:01.050Z,10.8
2022-12-25T11:37:00.971Z,10.7
2022-12-25T11:38:00.984Z,10.6
2022-12-25T11:40:00.966Z,10.6
2022-12-25T11:41:00.962Z,10.7
2022-12-25T11:45:01.022Z,10.8
2022-12-25T11:47:01.059Z,10.6
2022-12-25T11:49:00.994Z,10.7
2022-12-25T11:53:00.923Z,10.7
2022-12-25T11:59:00.921Z,10.8
2022-12-25T12:01:00.957Z,10.9
2022-12-25T12:02:01.011Z,11
2022-12-25T12:05:00.894Z,11.1
2022-12-25T12:06:00.938Z,11.2
2022-12-25T12:07:00.987Z,11.4
2022-12-25T12:09:00.979Z,11.4
2022-12-25T12:12:00.890Z,11.6
2022-12-25T12:14:00.902Z,11.7
2022-12-25T12:17:01.003Z,11.8
2022-12-25T12:19:00.898Z,11.9
2022-12-25T12:20:00.905Z,12
2022-12-25T12:22:00.993Z,12.1
2022-12-25T12:24:00.950Z,12.2
2022-12-25T12:26:00.928Z,12.1
2022-12-25T12:29:00.944Z,11.9
2022-12-25T12:32:00.962Z,11.8
2022-12-25T12:35:00.895Z,11.7
2022-12-25T12:36:00.939Z,11.5
2022-12-25T12:37:00.922Z,11.6
2022-12-25T12:42:00.898Z,11.3
2022-12-25T12:45:00.995Z,11.2
2022-12-25T12:47:00.962Z,11.4
2022-12-25T12:48:00.991Z,11.2
2022-12-25T12:50:01.013Z,11.1
2022-12-25T12:52:00.900Z,11
2022-12-25T12:53:00.968Z,11.1
2022-12-25T12:56:00.907Z,10.9
2022-12-25T13:01:01.013Z,10.8
2022-12-25T13:04:00.945Z,10.7
2022-12-25T13:06:00.996Z,10.7
2022-12-25T13:08:00.950Z,10.5
2022-12-25T13:12:00.949Z,10.6
2022-12-25T13:15:01.008Z,10.4
2022-12-25T13:17:00.950Z,10.2
2022-12-25T13:18:00.949Z,10.4
2022-12-25T13:19:00.964Z,10.3
2022-12-25T13:21:00.894Z,10.1
2022-12-25T13:22:01.007Z,10.3
2022-12-25T13:23:00.913Z,10.2
2022-12-25T13:25:00.896Z,10.3
2022-12-25T13:26:00.931Z,10.2
2022-12-25T13:28:00.905Z,10.1
2022-12-25T13:29:01.972Z,10.2
2022-12-25T13:31:00.940Z,10
2022-12-25T13:33:01.012Z,9.9
2022-12-25T13:35:00.906Z,10
2022-12-25T13:37:00.924Z,9.9
2022-12-25T13:40:00.916Z,9.8
2022-12-25T13:42:00.917Z,9.9
2022-12-25T13:44:00.913Z,9.8
2022-12-25T13:45:00.998Z,9.7
2022-12-25T13:49:01.059Z,9.7
2022-12-25T13:51:00.919Z,9.6
2022-12-25T13:52:00.939Z,9.7
2022-12-25T13:54:00.934Z,9.8
2022-12-25T13:55:00.970Z,9.5
2022-12-25T13:58:00.971Z,9.6
2022-12-25T14:00:00.987Z,9.5
2022-12-25T14:02:01.057Z,9.5
2022-12-25T14:04:00.955Z,9.4
2022-12-25T14:07:00.948Z,9.5
2022-12-25T14:09:00.929Z,9.3
2022-12-25T14:10:00.921Z,9.4
2022-12-25T14:15:00.964Z,9.5
2022-12-25T14:19:00.915Z,9.3
2022-12-25T14:20:07.769Z,9.4
2022-12-25T14:22:00.955Z,9.3
2022-12-25T14:24:00.956Z,9.2
2022-12-25T14:25:00.928Z,9.3
2022-12-25T14:26:00.968Z,9.2
2022-12-25T14:27:00.954Z,9.3
2022-12-25T14:29:00.970Z,9.3
2022-12-25T14:30:01.458Z,9.2
2022-12-25T14:32:01.023Z,9.2
2022-12-25T14:35:00.934Z,9.3
2022-12-25T14:36:00.983Z,9.2
2022-12-25T14:38:00.958Z,9.3
2022-12-25T14:39:00.946Z,9.2
2022-12-25T14:40:00.974Z,9.4
2022-12-25T14:42:00.979Z,9.2
2022-12-25T14:43:00.965Z,9.4
2022-12-25T14:44:01.011Z,9.3
2022-12-25T14:45:01.018Z,9.2
2022-12-25T14:47:00.958Z,9.2
2022-12-25T14:49:00.991Z,9.4
2022-12-25T14:50:00.958Z,9.2
2022-12-25T14:52:00.937Z,9.4
2022-12-25T14:54:00.963Z,9.3
2022-12-25T14:56:00.920Z,9.4
2022-12-25T14:57:01.031Z,9.3
2022-12-25T14:59:00.916Z,9.4
2022-12-25T15:02:01.100Z,9.3
2022-12-25T15:03:01.094Z,9.4
2022-12-25T15:05:00.931Z,9.3
2022-12-25T15:06:01.115Z,9.2
2022-12-25T15:09:00.946Z,9.4
2022-12-25T15:10:28.890Z,9.5
2022-12-25T15:12:00.942Z,9.2
2022-12-25T15:13:00.964Z,9.5
2022-12-25T15:15:00.973Z,9.3
2022-12-25T15:17:01.007Z,9.3
2022-12-25T15:19:00.939Z,9.4
2022-12-25T15:20:00.922Z,9.3
2022-12-25T15:21:00.944Z,9.5
2022-12-25T15:22:00.903Z,9.4
2022-12-25T15:25:02.596Z,9.5
2022-12-25T15:26:00.961Z,9.4
2022-12-25T15:28:00.973Z,9.3
2022-12-25T15:33:00.921Z,9.3
2022-12-25T15:34:00.982Z,9.6
2022-12-25T15:37:00.970Z,9.5
2022-12-25T15:43:02.580Z,9.6
2022-12-25T15:45:01.174Z,9.7
2022-12-25T15:49:00.949Z,9.7
2022-12-25T15:50:01.006Z,9.8
2022-12-25T15:53:00.944Z,9.7
2022-12-25T15:54:00.985Z,9.6
2022-12-25T15:56:00.946Z,9.7
2022-12-25T15:59:00.922Z,9.6
2022-12-25T16:00:00.985Z,9.8
2022-12-25T16:03:01.277Z,9.6
2022-12-25T16:05:04.203Z,9.8
2022-12-25T16:06:00.962Z,9.7
2022-12-25T16:08:00.970Z,9.7
2022-12-25T16:09:00.963Z,9.9
2022-12-25T16:10:01.011Z,9.8
2022-12-25T16:17:00.924Z,9.9
2022-12-25T16:19:00.989Z,9.8
2022-12-25T16:20:01.078Z,10
2022-12-25T16:23:00.938Z,9.9
2022-12-25T16:25:01.121Z,9.8
2022-12-25T16:28:01.011Z,9.8
2022-12-25T16:29:05.075Z,9.9
2022-12-25T16:40:01.070Z,9.8
2022-12-25T16:43:01.125Z,9.9
2022-12-25T16:46:01.035Z,9.9
2022-12-25T16:48:00.971Z,9.9
2022-12-25T16:50:01.034Z,9.8
2022-12-25T16:53:01.023Z,9.7
2022-12-25T17:03:01.298Z,9.9
2022-12-25T17:06:01.228Z,9.8
2022-12-25T17:09:00.930Z,9.8
2022-12-25T17:14:00.947Z,9.9
2022-12-25T17:15:01.253Z,9.8
2022-12-25T17:19:00.967Z,9.7
2022-12-25T17:20:01.004Z,9.9
2022-12-25T17:22:00.999Z,9.8
2022-12-25T17:28:00.986Z,9.9
2022-12-25T17:32:01.154Z,9.8
2022-12-25T17:34:01.057Z,9.9
2022-12-25T17:36:03.807Z,9.9
2022-12-25T17:37:01.134Z,10
2022-12-25T17:43:01.008Z,9.9
2022-12-25T17:48:01.157Z,10.2
2022-12-25T17:50:01.095Z,10.1
2022-12-25T17:58:01.207Z,10.2
2022-12-25T17:59:01.212Z,10.1
2022-12-25T18:03:05.901Z,10.2
2022-12-25T18:05:00.975Z,10.2
2022-12-25T18:07:01.397Z,10.2
2022-12-25T18:10:01.006Z,10.2
2022-12-25T18:12:00.997Z,10.2
2022-12-25T18:14:00.999Z,10.1
2022-12-25T18:17:01.016Z,10.2
2022-12-25T18:18:01.015Z,10.1
2022-12-25T18:26:01.030Z,10.2
2022-12-25T18:28:02.579Z,10.2
2022-12-25T18:30:01.205Z,10.1
2022-12-25T18:35:01.048Z,10
2022-12-25T18:37:02.066Z,10.1
2022-12-25T18:39:01.071Z,10.2
2022-12-25T18:41:00.937Z,10.3
2022-12-25T18:42:00.937Z,10.2
2022-12-25T18:46:00.969Z,10.3
2022-12-25T18:47:01.013Z,10.2
2022-12-25T18:49:00.993Z,10.1
2022-12-25T18:50:01.346Z,10.2
2022-12-25T18:52:47.127Z,10.3
2022-12-25T18:53:01.048Z,10.2
2022-12-25T18:55:00.932Z,10.3
2022-12-25T18:56:00.938Z,10.2
2022-12-25T18:58:01.005Z,10.3
2022-12-25T19:01:01.063Z,10.4
2022-12-25T19:02:01.074Z,10.3
2022-12-25T19:03:01.261Z,10.2
2022-12-25T19:05:00.955Z,10.3
2022-12-25T19:08:00.949Z,10.4
2022-12-25T19:10:00.974Z,10.3
2022-12-25T19:12:00.991Z,10.4
2022-12-25T19:13:01.054Z,10.3
2022-12-25T19:15:01.126Z,10.4
2022-12-25T19:20:00.978Z,10.4
2022-12-25T19:21:01.064Z,10.3
2022-12-25T19:23:01.942Z,10.4
2022-12-25T19:24:00.994Z,10.3
2022-12-25T19:27:00.950Z,10.4
2022-12-25T19:28:00.969Z,10.3
2022-12-25T19:29:00.969Z,10.4
2022-12-25T19:32:01.046Z,10.3
2022-12-25T19:36:01.105Z,10.4
2022-12-25T19:39:01.015Z,10.3
2022-12-25T19:43:00.983Z,10.3
2022-12-25T19:46:00.948Z,10.2
2022-12-25T19:48:01.019Z,10.3
2022-12-25T19:50:03.268Z,10.2
2022-12-25T19:51:00.989Z,10.3
2022-12-25T19:53:00.983Z,10.3
2022-12-25T19:56:01.074Z,10.2
2022-12-25T19:58:00.984Z,10.3
2022-12-25T19:59:00.970Z,10.2
2022-12-25T20:01:01.000Z,10.1
2022-12-25T20:03:01.076Z,10.3
2022-12-25T20:05:01.001Z,10.1
2022-12-25T20:07:01.063Z,10.1
2022-12-25T20:09:01.005Z,9.9
2022-12-25T20:10:00.943Z,10.1
2022-12-25T20:11:01.069Z,10
2022-12-25T20:13:00.960Z,10.1
2022-12-25T20:14:00.954Z,10.2
2022-12-25T20:16:00.979Z,10.1
2022-12-25T20:17:01.100Z,10.2
2022-12-25T20:18:00.956Z,10.1
2022-12-25T20:19:00.955Z,10.2
2022-12-25T20:20:00.971Z,10.1
2022-12-25T20:21:00.984Z,10.2
2022-12-25T20:22:00.973Z,10.1
2022-12-25T20:24:00.954Z,10.3
2022-12-25T20:26:01.037Z,10.1
2022-12-25T20:28:00.942Z,10.2
2022-12-25T20:34:00.929Z,10.3
2022-12-25T20:35:00.974Z,10.2
2022-12-25T20:40:00.967Z,10.3
2022-12-25T20:46:01.050Z,10.4
2022-12-25T20:48:00.966Z,10.4
2022-12-25T20:49:01.012Z,10.3
2022-12-25T20:54:01.093Z,10.4
2022-12-25T20:55:01.061Z,10.3
2022-12-25T20:57:01.042Z,10.3
2022-12-25T20:58:01.002Z,10.2
2022-12-25T21:00:00.988Z,10.3
2022-12-25T21:02:01.052Z,10.2
2022-12-25T21:03:01.015Z,10.3
2022-12-25T21:08:01.019Z,10.2
2022-12-25T21:10:00.941Z,10.2
2022-12-25T21:11:01.112Z,10.4
2022-12-25T21:14:00.951Z,10.4
2022-12-25T21:16:00.988Z,10.3
2022-12-25T21:17:01.033Z,10.4
2022-12-25T21:19:01.063Z,10.4
2022-12-25T21:21:01.005Z,10.2
2022-12-25T21:23:00.980Z,10.3
2022-12-25T21:25:00.921Z,10.2
2022-12-25T21:26:00.946Z,10.3
2022-12-25T21:28:01.042Z,10.1
2022-12-25T21:30:14.690Z,10.1
2022-12-25T21:33:01.026Z,10.1
2022-12-25T21:35:00.967Z,10.2
2022-12-25T21:36:00.950Z,10.1
2022-12-25T21:37:00.989Z,10
2022-12-25T21:39:00.974Z,10
2022-12-25T21:40:00.928Z,10.1
2022-12-25T21:43:00.927Z,10
2022-12-25T21:44:01.002Z,10.1
2022-12-25T21:45:01.383Z,10
2022-12-25T21:48:02.851Z,10.1
2022-12-25T21:50:00.971Z,10.1
2022-12-25T21:54:01.039Z,9.9
2022-12-25T21:55:01.098Z,10.1
2022-12-25T21:56:00.948Z,9.9
2022-12-25T22:02:01.063Z,10
2022-12-25T22:04:00.963Z,9.9
2022-12-25T22:05:01.000Z,10
2022-12-25T22:08:00.955Z,10
2022-12-25T22:10:00.929Z,9.9
2022-12-25T22:12:00.966Z,10
2022-12-25T22:13:00.990Z,9.9
2022-12-25T22:15:01.041Z,10
2022-12-25T22:20:00.999Z,10
2022-12-25T22:23:00.964Z,9.9
2022-12-25T22:24:00.996Z,10
2022-12-25T22:25:01.011Z,9.9
2022-12-25T22:27:01.012Z,9.8
2022-12-25T22:30:01.087Z,9.9
2022-12-25T22:33:00.923Z,10
2022-12-25T22:34:00.930Z,9.9
2022-12-25T22:36:00.970Z,9.9
2022-12-25T22:37:01.087Z,9.8
2022-12-25T22:39:00.945Z,9.9
2022-12-25T22:44:16.840Z,9.8
2022-12-25T22:45:00.987Z,10
2022-12-25T22:46:01.160Z,9.8
2022-12-25T22:47:01.059Z,9.9
2022-12-25T22:49:00.999Z,9.9
2022-12-25T22:52:00.957Z,9.9
2022-12-25T22:53:01.068Z,9.7
2022-12-25T22:55:00.960Z,9.7
2022-12-25T22:56:00.927Z,9.8
2022-12-25T22:57:01.006Z,9.7
2022-12-25T22:58:00.984Z,9.8
2022-12-25T23:00:01.293Z,9.7
2022-12-25T23:05:01.051Z,9.8
2022-12-25T23:06:01.146Z,9.7
2022-12-25T23:10:01.029Z,9.6
2022-12-25T23:14:01.001Z,9.6
2022-12-25T23:16:01.014Z,9.7
2022-12-25T23:19:01.026Z,9.8
2022-12-25T23:27:01.126Z,9.6
2022-12-25T23:29:00.976Z,9.8
2022-12-25T23:32:00.960Z,9.7
2022-12-25T23:34:00.992Z,9.8
2022-12-25T23:35:01.034Z,9.9
2022-12-25T23:36:01.027Z,9.8
2022-12-25T23:37:01.018Z,9.7
2022-12-25T23:39:07.040Z,9.8
2022-12-25T23:42:01.010Z,9.9
2022-12-25T23:43:00.989Z,9.8
2022-12-25T23:45:01.014Z,10
2022-12-25T23:48:00.982Z,9.9
2022-12-25T23:50:00.969Z,10
2022-12-25T23:53:01.076Z,10.1
2022-12-25T23:55:00.994Z,10.1
2022-12-25T23:57:01.029Z,10
2022-12-25T23:59:00.965Z,10.2
